createdAt,value
2018-07-29T00:01:42.812Z,23.70
2018-07-29T00:04:11.027Z,23.70
2018-07-29T00:06:39.214Z,23.70
2018-07-29T00:09:08.977Z,23.80
2018-07-29T00:11:37.208Z,23.80
2018-07-29T00:14:05.880Z,23.60
2018-07-29T00:16:34.043Z,23.50
2018-07-29T00:19:02.392Z,23.50
2018-07-29T00:21:30.599Z,23.40
2018-07-29T00:23:58.838Z,23.40
2018-07-29T00:26:27.050Z,23.40
2018-07-29T00:28:55.284Z,23.40
2018-07-29T00:31:23.525Z,23.30
2018-07-29T00:33:52.047Z,23.20
2018-07-29T00:36:20.255Z,23.20
2018-07-29T00:38:48.636Z,23.20
2018-07-29T00:41:16.852Z,23.20
2018-07-29T00:43:45.060Z,23.20
2018-07-29T00:46:13.282Z,23.20
2018-07-29T00:48:41.476Z,23.20
2018-07-29T00:51:09.673Z,23.10
2018-07-29T00:53:37.907Z,23.10
2018-07-29T00:56:06.088Z,23.00
2018-07-29T00:58:34.299Z,23.00
2018-07-29T01:01:02.572Z,22.90
2018-07-29T01:03:30.819Z,22.90
2018-07-29T01:05:59.019Z,22.90
2018-07-29T01:08:27.252Z,22.90
2018-07-29T01:10:55.455Z,22.80
2018-07-29T01:13:23.647Z,22.70
2018-07-29T01:15:51.855Z,22.70
2018-07-29T01:18:20.047Z,22.60
2018-07-29T01:20:48.229Z,22.60
2018-07-29T01:23:20.627Z,22.60
2018-07-29T01:25:48.812Z,22.50
2018-07-29T01:30:44.991Z,22.40
2018-07-29T01:33:13.193Z,22.40
2018-07-29T01:35:41.387Z,22.40
2018-07-29T01:38:13.651Z,22.30
2018-07-29T01:40:44.884Z,22.30
2018-07-29T01:43:13.103Z,22.20
2018-07-29T01:45:41.311Z,22.20
2018-07-29T01:48:10.536Z,22.10
2018-07-29T01:50:38.724Z,22.10
2018-07-29T01:53:07.507Z,22.10
2018-07-29T01:55:39.274Z,22.10
2018-07-29T01:58:07.472Z,22.00
2018-07-29T02:00:35.734Z,22.10
2018-07-29T02:03:03.976Z,22.00
2018-07-29T02:05:32.190Z,21.90
2018-07-29T02:10:32.214Z,21.70
2018-07-29T02:13:00.814Z,21.60
2018-07-29T02:15:29.034Z,21.60
2018-07-29T02:17:57.267Z,21.50
2018-07-29T02:20:25.474Z,21.50
2018-07-29T02:22:53.697Z,21.40
2018-07-29T02:25:33.541Z,21.40
2018-07-29T02:28:02.407Z,21.40
2018-07-29T02:30:30.595Z,21.40
2018-07-29T02:32:58.830Z,21.40
2018-07-29T02:35:27.028Z,21.40
2018-07-29T02:37:55.218Z,21.30
2018-07-29T02:40:27.111Z,21.30
2018-07-29T02:42:55.367Z,21.20
2018-07-29T02:45:23.571Z,21.20
2018-07-29T02:47:52.195Z,21.20
2018-07-29T02:50:20.399Z,21.20
2018-07-29T02:52:48.594Z,21.10
2018-07-29T02:55:21.152Z,21.10
2018-07-29T02:57:49.354Z,21.10
2018-07-29T03:00:17.621Z,21.10
2018-07-29T03:02:45.850Z,21.00
2018-07-29T03:05:14.068Z,21.00
2018-07-29T03:07:42.597Z,20.90
2018-07-29T03:10:15.228Z,20.90
2018-07-29T03:12:43.452Z,21.00
2018-07-29T03:15:12.497Z,21.10
2018-07-29T03:17:40.732Z,21.10
2018-07-29T03:20:08.919Z,21.10
2018-07-29T03:22:37.411Z,21.10
2018-07-29T03:25:12.668Z,21.10
2018-07-29T03:27:40.852Z,21.10
2018-07-29T03:30:09.467Z,21.00
2018-07-29T03:32:38.707Z,21.00
2018-07-29T03:35:06.947Z,20.90
2018-07-29T03:37:35.159Z,20.80
2018-07-29T03:40:06.599Z,20.70
2018-07-29T03:42:34.802Z,20.80
2018-07-29T03:45:03.336Z,20.80
2018-07-29T03:47:31.531Z,20.80
2018-07-29T03:49:59.769Z,20.70
2018-07-29T03:52:27.970Z,20.70
2018-07-29T03:54:56.221Z,20.70
2018-07-29T03:57:24.425Z,20.70
2018-07-29T03:59:52.720Z,20.70
2018-07-29T04:02:20.908Z,20.70
2018-07-29T04:04:49.142Z,20.70
2018-07-29T04:07:17.361Z,20.70
2018-07-29T04:09:45.608Z,20.70
2018-07-29T04:12:13.816Z,20.70
2018-07-29T04:14:42.022Z,20.70
2018-07-29T04:17:10.239Z,20.70
2018-07-29T04:19:38.452Z,20.70
2018-07-29T04:22:06.655Z,20.60
2018-07-29T04:24:35.048Z,20.70
2018-07-29T04:27:06.525Z,20.80
2018-07-29T04:29:34.756Z,20.90
2018-07-29T04:32:03.051Z,20.90
2018-07-29T04:34:31.871Z,21.00
2018-07-29T04:37:00.053Z,21.10
2018-07-29T04:39:28.283Z,21.20
2018-07-29T04:41:56.489Z,21.40
2018-07-29T04:44:24.661Z,21.60
2018-07-29T04:46:52.855Z,21.80
2018-07-29T04:49:21.159Z,22.30
2018-07-29T04:51:49.359Z,23.00
2018-07-29T04:54:17.577Z,23.90
2018-07-29T04:56:45.809Z,24.90
2018-07-29T04:59:14.035Z,25.60
2018-07-29T05:01:42.235Z,26.30
2018-07-29T05:04:10.748Z,27.00
2018-07-29T05:06:39.000Z,27.40
2018-07-29T05:09:07.747Z,27.70
2018-07-29T05:11:35.962Z,27.70
2018-07-29T05:14:04.167Z,27.70
2018-07-29T05:16:32.371Z,27.60
2018-07-29T05:19:00.575Z,27.20
2018-07-29T05:21:28.781Z,26.80
2018-07-29T05:23:57.003Z,26.50
2018-07-29T05:26:25.245Z,26.40
2018-07-29T05:28:53.403Z,26.20
2018-07-29T05:31:21.564Z,26.00
2018-07-29T05:33:49.763Z,25.80
2018-07-29T05:36:17.911Z,25.90
2018-07-29T05:38:46.189Z,25.90
2018-07-29T05:41:14.320Z,26.10
2018-07-29T05:43:42.494Z,26.50
2018-07-29T05:46:10.800Z,27.60
2018-07-29T05:48:38.986Z,29.10
2018-07-29T05:51:07.220Z,30.00
2018-07-29T05:53:35.426Z,30.50
2018-07-29T05:56:03.745Z,31.10
2018-07-29T05:58:31.867Z,31.50
2018-07-29T06:01:00.088Z,31.80
2018-07-29T06:03:28.526Z,32.40
2018-07-29T06:05:56.720Z,32.40
2018-07-29T06:08:24.927Z,32.20
2018-07-29T06:10:53.152Z,32.70
2018-07-29T06:13:21.375Z,33.30
2018-07-29T06:15:49.553Z,33.50
2018-07-29T06:18:18.081Z,34.00
2018-07-29T06:20:46.284Z,33.60
2018-07-29T06:23:14.484Z,33.70
2018-07-29T06:25:42.679Z,33.20
2018-07-29T06:28:10.883Z,32.60
2018-07-29T06:30:39.099Z,32.80
2018-07-29T06:33:07.401Z,32.80
2018-07-29T06:35:35.611Z,32.60
2018-07-29T06:38:06.849Z,31.90
2018-07-29T06:40:35.081Z,30.70
2018-07-29T06:43:03.255Z,29.60
2018-07-29T06:45:32.451Z,28.70
2018-07-29T06:48:00.628Z,27.90
2018-07-29T06:50:31.731Z,27.20
2018-07-29T06:52:59.943Z,26.60
2018-07-29T06:55:28.180Z,26.30
2018-07-29T07:17:20.703Z,26.20
2018-07-29T07:19:48.926Z,26.20
2018-07-29T07:22:17.750Z,25.90
2018-07-29T07:24:45.935Z,25.80
2018-07-29T07:27:14.261Z,25.80
2018-07-29T07:29:42.653Z,25.80
2018-07-29T07:32:14.452Z,25.90
2018-07-29T07:34:43.203Z,26.00
2018-07-29T07:37:11.350Z,26.20
2018-07-29T07:39:39.575Z,26.30
2018-07-29T07:42:07.758Z,26.40
2018-07-29T07:44:46.784Z,26.40
2018-07-29T07:47:14.972Z,26.40
2018-07-29T07:49:43.574Z,26.40
2018-07-29T07:52:11.762Z,26.50
2018-07-29T07:54:39.934Z,26.60
2018-07-29T07:57:08.951Z,26.80
2018-07-29T07:59:37.145Z,27.00
2018-07-29T08:02:05.415Z,27.20
2018-07-29T08:04:34.020Z,27.30
2018-07-29T08:07:02.194Z,27.40
2018-07-29T08:09:30.432Z,27.40
2018-07-29T08:11:58.635Z,27.40
2018-07-29T08:14:26.865Z,27.50
2018-07-29T08:16:55.040Z,27.60
2018-07-29T08:19:23.340Z,27.70
2018-07-29T08:21:51.731Z,27.80
2018-07-29T08:24:19.972Z,27.80
2018-07-29T08:26:48.100Z,28.00
2018-07-29T08:29:16.250Z,28.20
2018-07-29T08:31:49.151Z,28.60
2018-07-29T08:34:17.372Z,29.00
2018-07-29T08:36:45.600Z,29.20
2018-07-29T08:39:13.780Z,29.30
2018-07-29T08:41:42.715Z,29.20
2018-07-29T08:44:10.924Z,29.30
2018-07-29T08:46:39.094Z,29.40
2018-07-29T08:49:08.099Z,29.50
2018-07-29T08:51:36.436Z,29.50
2018-07-29T08:54:04.947Z,29.50
2018-07-29T08:56:33.399Z,29.60
2018-07-29T08:59:01.625Z,29.70
2018-07-29T09:01:33.191Z,29.50
2018-07-29T09:04:01.441Z,29.10
2018-07-29T09:06:29.623Z,28.80
2018-07-29T09:08:57.928Z,28.70
2018-07-29T09:11:26.119Z,28.60
2018-07-29T09:13:54.355Z,28.70
2018-07-29T09:16:22.559Z,28.70
2018-07-29T09:18:50.749Z,28.80
2018-07-29T09:21:18.953Z,28.80
2018-07-29T09:23:47.328Z,28.80
2018-07-29T09:26:15.500Z,28.90
2018-07-29T09:28:43.710Z,29.20
2018-07-29T09:31:15.468Z,29.60
2018-07-29T09:33:43.644Z,29.80
2018-07-29T09:36:12.412Z,29.90
2018-07-29T09:38:40.595Z,30.20
2018-07-29T09:41:08.806Z,30.60
2018-07-29T09:43:37.220Z,30.90
2018-07-29T09:46:05.521Z,31.00
2018-07-29T09:48:40.792Z,31.10
2018-07-29T09:51:09.063Z,31.10
2018-07-29T09:53:37.268Z,31.20
2018-07-29T09:56:05.584Z,31.20
2018-07-29T09:58:33.820Z,31.10
2018-07-29T10:01:08.410Z,31.20
2018-07-29T10:03:37.133Z,31.30
2018-07-29T10:06:05.335Z,31.40
2018-07-29T10:08:33.812Z,31.50
2018-07-29T10:11:02.187Z,31.70
2018-07-29T10:13:30.533Z,31.80
2018-07-29T10:15:58.817Z,31.60
2018-07-29T10:18:27.175Z,31.50
2018-07-29T10:20:55.417Z,31.60
2018-07-29T10:23:23.613Z,31.60
2018-07-29T10:25:51.851Z,31.70
2018-07-29T10:28:20.039Z,31.60
2018-07-29T10:30:48.209Z,31.50
2018-07-29T10:33:21.026Z,31.40
2018-07-29T10:35:49.255Z,31.40
2018-07-29T10:38:18.145Z,31.60
2018-07-29T10:40:46.524Z,31.90
2018-07-29T10:43:14.752Z,32.00
2018-07-29T10:48:14.780Z,32.20
2018-07-29T10:50:44.027Z,32.30
2018-07-29T10:53:12.257Z,31.90
2018-07-29T10:55:40.502Z,31.80
2018-07-29T10:58:08.736Z,31.90
2018-07-29T11:00:36.929Z,32.10
2018-07-29T11:03:08.146Z,32.20
2018-07-29T11:05:36.364Z,32.30
2018-07-29T11:08:04.553Z,32.40
2018-07-29T11:10:33.392Z,32.40
2018-07-29T11:15:29.604Z,32.50
2018-07-29T11:20:29.310Z,32.40
2018-07-29T11:22:58.464Z,32.30
2018-07-29T11:25:26.705Z,32.10
2018-07-29T11:27:54.890Z,31.80
2018-07-29T11:30:23.342Z,31.50
2018-07-29T11:32:51.533Z,31.30
2018-07-29T11:35:19.737Z,31.00
2018-07-29T11:37:47.933Z,31.00
2018-07-29T11:40:16.104Z,31.10
2018-07-29T11:42:44.295Z,31.40
2018-07-29T11:45:12.656Z,31.70
2018-07-29T11:47:40.875Z,32.00
2018-07-29T11:50:09.142Z,32.30
2018-07-29T11:52:37.433Z,32.60
2018-07-29T11:55:05.575Z,32.90
2018-07-29T11:57:33.748Z,33.30
2018-07-29T12:00:02.085Z,33.40
2018-07-29T12:04:58.319Z,33.10
2018-07-29T12:07:26.487Z,33.00
2018-07-29T12:09:54.668Z,32.90
2018-07-29T12:12:22.845Z,32.60
2018-07-29T12:14:51.546Z,32.40
2018-07-29T12:17:19.716Z,32.10
2018-07-29T12:19:47.899Z,31.90
2018-07-29T12:22:16.137Z,31.80
2018-07-29T12:24:44.326Z,31.70
2018-07-29T12:27:12.570Z,31.50
2018-07-29T12:29:41.020Z,31.20
2018-07-29T12:32:09.238Z,31.30
2018-07-29T12:34:37.679Z,31.50
2018-07-29T12:37:06.100Z,31.70
2018-07-29T12:39:34.337Z,31.90
2018-07-29T12:42:02.568Z,32.20
2018-07-29T12:44:30.835Z,32.50
2018-07-29T12:46:59.031Z,32.60
2018-07-29T12:49:30.460Z,32.70
2018-07-29T12:51:58.642Z,32.60
2018-07-29T12:54:26.908Z,32.80
2018-07-29T12:56:55.240Z,32.90
2018-07-29T12:59:23.459Z,33.00
2018-07-29T13:01:51.729Z,33.00
2018-07-29T13:04:20.536Z,33.30
2018-07-29T13:06:52.255Z,33.50
2018-07-29T13:09:20.776Z,33.40
2018-07-29T13:11:49.086Z,33.30
2018-07-29T13:14:17.278Z,33.20
2018-07-29T13:16:45.878Z,33.30
2018-07-29T13:19:14.250Z,33.30
2018-07-29T13:21:45.232Z,33.20
2018-07-29T13:24:13.453Z,33.20
2018-07-29T13:26:41.624Z,33.10
2018-07-29T13:29:10.671Z,33.20
2018-07-29T13:31:38.899Z,33.40
2018-07-29T13:34:07.271Z,33.70
2018-07-29T13:36:39.179Z,33.90
2018-07-29T13:39:08.736Z,33.90
2018-07-29T13:41:36.967Z,33.80
2018-07-29T13:44:06.203Z,33.80
2018-07-29T13:46:34.391Z,33.80
2018-07-29T13:49:02.688Z,33.80
2018-07-29T13:51:35.808Z,33.90
2018-07-29T13:54:03.999Z,33.90
2018-07-29T13:59:00.232Z,33.70
2018-07-29T14:01:28.481Z,33.50
2018-07-29T14:03:56.675Z,33.10
2018-07-29T14:06:36.722Z,32.80
2018-07-29T14:09:07.468Z,33.00
2018-07-29T14:11:35.655Z,33.40
2018-07-29T14:14:03.856Z,33.60
2018-07-29T14:16:32.828Z,33.90
2018-07-29T14:19:01.018Z,34.10
2018-07-29T14:21:32.311Z,34.20
2018-07-29T14:24:00.815Z,34.60
2018-07-29T14:26:29.057Z,34.90
2018-07-29T14:28:58.118Z,35.00
2018-07-29T14:31:26.312Z,35.00
2018-07-29T14:33:54.516Z,35.10
2018-07-29T14:36:26.175Z,35.20
2018-07-29T14:38:54.400Z,35.10
2018-07-29T14:41:23.071Z,35.10
2018-07-29T14:43:51.325Z,35.30
2018-07-29T14:46:19.612Z,35.40
2018-07-29T14:48:47.968Z,35.40
2018-07-29T14:51:20.655Z,35.40
2018-07-29T14:53:48.804Z,35.20
2018-07-29T14:56:17.647Z,35.10
2018-07-29T14:58:45.903Z,35.00
2018-07-29T15:03:42.793Z,35.20
2018-07-29T15:06:11.091Z,35.10
2018-07-29T15:08:39.282Z,35.10
2018-07-29T15:11:07.856Z,35.20
2018-07-29T15:13:36.068Z,35.30
2018-07-29T15:16:04.301Z,35.60
2018-07-29T15:18:32.546Z,35.80
2018-07-29T15:21:00.779Z,35.70
2018-07-29T15:23:32.267Z,35.60
2018-07-29T15:26:04.448Z,35.70
2018-07-29T15:28:33.292Z,35.70
2018-07-29T15:31:01.581Z,35.80
2018-07-29T15:33:29.752Z,35.60
2018-07-29T15:35:58.455Z,35.40
2018-07-29T15:38:26.650Z,35.30
2018-07-29T15:40:54.827Z,35.00
2018-07-29T15:43:23.247Z,34.70
2018-07-29T15:45:51.454Z,34.40
2018-07-29T15:48:19.659Z,33.90
2018-07-29T15:50:47.900Z,33.70
2018-07-29T15:53:16.071Z,33.50
2018-07-29T15:55:44.276Z,33.60
2018-07-29T15:58:12.437Z,33.50
2018-07-29T16:00:40.727Z,33.40
2018-07-29T16:03:08.902Z,33.30
2018-07-29T16:05:37.053Z,33.30
2018-07-29T16:08:05.226Z,33.20
2018-07-29T16:10:33.570Z,32.90
2018-07-29T16:13:01.710Z,32.80
2018-07-29T16:15:29.893Z,32.80
2018-07-29T16:17:58.072Z,32.90
2018-07-29T16:20:26.508Z,32.80
2018-07-29T16:23:04.792Z,33.00
2018-07-29T16:25:32.981Z,33.10
2018-07-29T16:28:01.168Z,33.10
2018-07-29T16:30:29.438Z,33.20
2018-07-29T16:32:57.611Z,33.20
2018-07-29T16:37:53.929Z,33.30
2018-07-29T16:40:22.484Z,33.40
2018-07-29T16:42:50.627Z,33.60
2018-07-29T16:45:18.857Z,33.60
2018-07-29T16:47:47.000Z,33.60
2018-07-29T16:50:15.491Z,33.90
2018-07-29T16:52:43.687Z,35.20
2018-07-29T16:55:11.939Z,36.60
2018-07-29T16:57:40.193Z,38.20
2018-07-29T17:00:08.437Z,39.30
2018-07-29T17:02:36.624Z,40.10
2018-07-29T17:05:04.858Z,40.10
2018-07-29T17:07:33.076Z,40.60
2018-07-29T17:10:01.327Z,40.90
2018-07-29T17:12:29.459Z,41.10
2018-07-29T17:14:57.609Z,41.10
2018-07-29T17:17:25.827Z,40.90
2018-07-29T17:19:54.113Z,40.20
2018-07-29T17:22:22.341Z,39.20
2018-07-29T17:24:50.562Z,38.20
2018-07-29T17:27:18.819Z,37.10
2018-07-29T17:29:46.996Z,36.10
2018-07-29T17:32:15.611Z,35.20
2018-07-29T17:34:43.834Z,34.70
2018-07-29T17:37:12.014Z,34.20
2018-07-29T17:39:40.207Z,33.80
2018-07-29T17:42:08.425Z,33.60
2018-07-29T17:44:36.611Z,33.50
2018-07-29T17:47:04.784Z,33.40
2018-07-29T17:49:32.991Z,33.40
2018-07-29T17:52:01.187Z,33.30
2018-07-29T17:54:29.433Z,33.30
2018-07-29T17:56:57.683Z,33.20
2018-07-29T18:01:53.888Z,32.70
2018-07-29T18:04:22.154Z,32.40
2018-07-29T18:06:50.352Z,32.00
2018-07-29T18:11:46.672Z,31.40
2018-07-29T18:14:14.895Z,31.10
2018-07-29T18:19:11.231Z,30.80
2018-07-29T18:21:39.443Z,30.70
2018-07-29T18:26:39.331Z,30.50
2018-07-29T18:29:08.491Z,30.50
2018-07-29T18:31:36.704Z,30.50
2018-07-29T18:34:04.978Z,30.50
2018-07-29T18:36:33.199Z,30.60
2018-07-29T18:39:01.439Z,30.80
2018-07-29T18:41:29.692Z,30.80
2018-07-29T18:43:57.863Z,30.60
2018-07-29T18:46:26.039Z,30.40
2018-07-29T18:48:54.622Z,30.10
2018-07-29T18:51:22.796Z,29.90
2018-07-29T18:56:19.243Z,29.50
2018-07-29T18:58:47.418Z,29.40
2018-07-29T19:01:15.699Z,29.30
2018-07-29T19:03:44.006Z,29.10
2018-07-29T19:06:12.253Z,29.00
2018-07-29T19:08:40.957Z,28.90
2018-07-29T19:11:13.197Z,28.80
2018-07-29T19:13:42.211Z,28.70
2018-07-29T19:16:10.783Z,28.50
2018-07-29T19:18:39.035Z,28.50
2018-07-29T19:21:07.297Z,28.40
2018-07-29T19:23:35.644Z,28.30
2018-07-29T19:26:03.839Z,28.20
2018-07-29T19:28:32.049Z,28.10
2018-07-29T19:31:00.316Z,28.00
2018-07-29T19:33:28.509Z,27.90
2018-07-29T19:35:56.642Z,27.80
2018-07-29T19:38:24.867Z,27.70
2018-07-29T19:40:57.143Z,27.70
2018-07-29T19:43:25.469Z,27.60
2018-07-29T19:45:53.737Z,27.50
2018-07-29T19:48:22.000Z,27.50
2018-07-29T19:50:50.206Z,27.40
2018-07-29T19:53:18.484Z,27.30
2018-07-29T19:55:46.664Z,27.20
2018-07-29T19:58:14.958Z,27.00
2018-07-29T20:00:43.196Z,27.00
2018-07-29T20:03:11.387Z,27.00
2018-07-29T20:05:39.681Z,26.90
2018-07-29T20:08:07.857Z,26.90
2018-07-29T20:10:36.145Z,26.80
2018-07-29T20:13:04.395Z,26.70
2018-07-29T20:15:32.608Z,26.70
2018-07-29T20:18:00.867Z,26.70
2018-07-29T20:20:29.147Z,26.60
2018-07-29T20:22:57.323Z,26.50
2018-07-29T20:25:25.500Z,26.40
2018-07-29T20:27:56.839Z,26.30
2018-07-29T20:32:53.962Z,26.20
2018-07-29T20:35:22.152Z,26.10
2018-07-29T20:37:51.133Z,26.10
2018-07-29T20:40:19.379Z,26.00
2018-07-29T20:42:50.556Z,25.90
2018-07-29T20:45:18.818Z,25.90
2018-07-29T20:47:47.043Z,25.80
2018-07-29T20:50:16.305Z,25.70
2018-07-29T20:52:44.507Z,25.70
2018-07-29T20:55:12.722Z,25.60
2018-07-29T20:57:43.843Z,25.60
2018-07-29T21:00:12.176Z,25.50
2018-07-29T21:02:40.530Z,25.40
2018-07-29T21:05:08.816Z,25.40
2018-07-29T21:07:37.008Z,25.30
2018-07-29T21:10:05.482Z,25.20
2018-07-29T21:12:36.885Z,25.20
2018-07-29T21:15:06.052Z,25.10
2018-07-29T21:17:34.233Z,25.00
2018-07-29T21:20:02.676Z,24.90
2018-07-29T21:22:30.911Z,24.80
2018-07-29T21:24:59.074Z,24.70
2018-07-29T21:27:27.334Z,24.60
2018-07-29T21:29:55.521Z,24.50
2018-07-29T21:32:23.755Z,24.40
2018-07-29T21:34:52.955Z,24.30
2018-07-29T21:37:21.206Z,24.30
2018-07-29T21:39:50.246Z,24.30
2018-07-29T21:42:18.452Z,24.20
2018-07-29T21:44:46.679Z,24.20
2018-07-29T21:47:14.927Z,24.20
2018-07-29T21:49:43.172Z,24.20
2018-07-29T21:52:11.425Z,24.10
2018-07-29T21:54:39.712Z,24.10
2018-07-29T21:57:07.911Z,24.10
2018-07-29T22:02:04.304Z,24.00
2018-07-29T22:04:32.528Z,23.90
2018-07-29T22:07:00.729Z,23.90
2018-07-29T22:11:56.995Z,23.80
2018-07-29T22:14:28.283Z,23.80
2018-07-29T22:16:56.584Z,23.80
2018-07-29T22:19:25.064Z,23.80
2018-07-29T22:21:54.239Z,23.80
2018-07-29T22:24:22.490Z,23.60
2018-07-29T22:26:57.014Z,23.50
2018-07-29T22:29:31.211Z,23.60
2018-07-29T22:32:04.892Z,23.50
2018-07-29T22:34:33.398Z,23.50
2018-07-29T22:37:01.607Z,23.40
2018-07-29T22:39:29.800Z,23.40
2018-07-29T22:41:57.999Z,23.40
2018-07-29T22:46:55.055Z,23.30
2018-07-29T22:49:23.268Z,23.20
2018-07-29T22:51:51.474Z,23.10
2018-07-29T22:54:20.582Z,23.00
2018-07-29T22:56:48.835Z,22.90
2018-07-29T22:59:17.022Z,22.80
2018-07-29T23:01:46.081Z,22.80
2018-07-29T23:04:14.280Z,22.70
2018-07-29T23:06:42.494Z,22.80
2018-07-29T23:09:11.411Z,22.70
2018-07-29T23:11:40.656Z,22.60
2018-07-29T23:14:08.837Z,22.50
2018-07-29T23:16:37.046Z,22.50
2018-07-29T23:19:05.207Z,22.40
2018-07-29T23:21:33.716Z,22.30
2018-07-29T23:24:01.906Z,22.30
2018-07-29T23:26:30.180Z,22.20
2018-07-29T23:28:58.430Z,22.10
2018-07-29T23:31:26.587Z,22.10
2018-07-29T23:33:54.759Z,22.10
2018-07-29T23:38:50.908Z,22.10
2018-07-29T23:41:19.383Z,22.00
2018-07-29T23:43:47.560Z,21.90
2018-07-29T23:48:43.684Z,21.80
2018-07-29T23:51:11.883Z,21.70
2018-07-29T23:53:40.136Z,21.70
2018-07-29T23:56:08.543Z,21.60
